UUDL

Details ICAO UUDL (IAR)
Name TUNOSHNA
Region Russia
Timezone Europe/Moscow (UTC+3.0)
Plans Departing 34
Arriving 43
Stats Elevation 305 ft / 93 m (AMSL)
Location 57.560668° 40.157367°
Runways 1
Magnetic Variation 12.682° E
Sunrise 2018-05-25 00:41:26 UTC / 2018-05-25 03:41:26 Local
Sunset 2018-05-25 17:54:01 UTC / 2018-05-25 20:54:01 Local
Advertisement - Login to hide

Runways

ID Width Length Bearing (true) Bearing (mag) Surface Threshold Offset Overrun Length
05 144 ft / 44 m 9,842 ft / 3,000 m 63.33° 50.65° Asphalt 0 ft / 0 m 160 ft / 49 m
23 144 ft / 44 m 9,842 ft / 3,000 m 243.37° 230.69° Asphalt 0 ft / 0 m 150 ft / 46 m

Approach Navaids

Runway Type Ident Frequency Range Bearing (true) Bearing (mag) Slope Elevation
23 Localiser IRG 110.50 MHz 18 nm / 33 km 244.13° 231.45° - 305 ft / 93 m (AMSL)
23 Glidescope IRG 110.50 MHz 10 nm / 19 km 243.35° 230.67° 3.00° 305 ft / 93 m (AMSL)

Map

Weather


0- 5 10 15 20 25 30 35+ Temperature / ° C

Clouds and Precipitation
Forecast for 2018-05-25 00:00 UTC. Updated 5 hours ago

Ground ~20,000 ft ~40,000 ft Winds

METAR

UUDL 250330Z 02004MPS CAVOK 09/03 Q1026 R23/010060 NOSIG RMK QFE761

TAF

TAF UUDL 250200Z 2503/2603 01003MPS 9999 BKN040

Frequencies

Recorded 127.35 MHz ATIS
Approach 120.30 MHz APP
Warning: Do not use this data for real-world aviation or navigation. No guarantee of current accuracy is given.